Time;durP1;ratioP1;P1;durP2;ratioP2;P2;SDS_P1;SDS_P2;PMS_P1;PMS_P2;Temp;Humidity;BMP_temperature;BMP_pressure;BME280_temperature;BME280_humidity;BME280_pressure;Samples;Min_cycle;Max_cycle;Signal;HPM_P1;HPM_P2
2023/04/18 00:02:21;;;;;;;30.08;14.18;;;7.40;99.90;;;;;;4988447;28;20113;-68
2023/04/18 00:04:49;;;;;;;30.33;13.35;;;7.40;99.90;;;;;;4989768;28;20081;-68
2023/04/18 00:07:16;;;;;;;28.42;13.27;;;7.40;99.90;;;;;;4986638;28;20105;-68
2023/04/18 00:09:42;;;;;;;29.42;13.43;;;7.40;99.90;;;;;;4989047;28;20035;-69
2023/04/18 00:12:08;;;;;;;29.08;14.05;;;7.40;99.90;;;;;;4989930;28;20037;-72
2023/04/18 00:14:36;;;;;;;32.92;14.32;;;7.40;99.90;;;;;;4987530;28;20038;-68
2023/04/18 00:17:08;;;;;;;29.13;12.70;;;7.40;99.90;;;;;;4989504;28;20154;-68
2023/04/18 00:19:35;;;;;;;27.92;13.32;;;7.50;99.90;;;;;;4986796;28;20042;-68
2023/04/18 00:22:01;;;;;;;27.20;12.52;;;7.50;99.90;;;;;;4988098;28;20463;-69
2023/04/18 00:24:27;;;;;;;27.77;13.05;;;7.40;99.90;;;;;;4971006;28;20062;-68
2023/04/18 00:26:53;;;;;;;22.35;11.85;;;7.40;99.90;;;;;;4989910;28;20057;-69
2023/04/18 00:29:18;;;;;;;25.30;12.50;;;7.40;99.90;;;;;;5004185;28;20092;-71
2023/04/18 00:31:44;;;;;;;27.67;12.57;;;7.40;99.90;;;;;;4988345;28;20124;-70
2023/04/18 00:34:09;;;;;;;26.42;12.43;;;7.40;99.90;;;;;;4987331;28;20465;-71
2023/04/18 00:36:35;;;;;;;26.98;11.63;;;7.40;99.90;;;;;;4988003;28;20034;-69
2023/04/18 00:39:01;;;;;;;24.17;11.45;;;7.30;99.90;;;;;;4990284;28;20427;-68
2023/04/18 00:41:28;;;;;;;24.63;12.32;;;7.30;99.90;;;;;;4988060;28;20433;-68
2023/04/18 00:43:54;;;;;;;25.00;11.30;;;7.30;99.90;;;;;;4974365;28;20050;-69
2023/04/18 00:46:20;;;;;;;25.25;12.18;;;7.20;99.90;;;;;;4987757;28;20041;-68
2023/04/18 00:48:46;;;;;;;26.40;11.45;;;7.20;99.90;;;;;;4987304;28;20121;-68
2023/04/18 00:51:12;;;;;;;22.35;11.13;;;7.20;99.90;;;;;;4987355;28;20077;-71
2023/04/18 00:53:39;;;;;;;23.05;11.35;;;7.20;99.90;;;;;;5002815;28;20109;-68
2023/04/18 00:56:06;;;;;;;27.33;11.85;;;7.20;99.90;;;;;;4989406;28;20061;-69
2023/04/18 00:58:32;;;;;;;24.15;11.13;;;7.20;99.90;;;;;;4986982;28;20483;-70
2023/04/18 01:00:57;;;;;;;25.73;11.40;;;7.20;99.90;;;;;;4971239;28;20037;-68
2023/04/18 01:03:24;;;;;;;22.20;10.60;;;7.10;99.90;;;;;;4988888;28;20092;-68
2023/04/18 01:05:51;;;;;;;21.80;10.45;;;7.10;99.90;;;;;;4986999;28;20546;-69
2023/04/18 01:08:20;;;;;;;24.65;11.02;;;7.10;99.90;;;;;;4987859;28;20061;-68
2023/04/18 01:10:46;;;;;;;27.67;10.98;;;7.20;99.90;;;;;;4987005;28;20042;-69
2023/04/18 01:13:16;;;;;;;24.10;11.43;;;7.10;99.90;;;;;;4988295;28;20085;-72
2023/04/18 01:15:43;;;;;;;20.63;10.57;;;7.00;99.90;;;;;;4987969;28;20416;-67
2023/04/18 01:18:10;;;;;;;23.02;10.50;;;7.10;99.90;;;;;;4988582;28;20466;-66
2023/04/18 01:20:42;;;;;;;24.25;11.13;;;7.10;99.90;;;;;;4974295;28;20038;-67
2023/04/18 01:23:11;;;;;;;27.98;11.93;;;7.00;99.90;;;;;;4988496;28;20038;-66
2023/04/18 01:25:37;;;;;;;23.20;11.00;;;7.00;99.90;;;;;;4987086;28;20064;-66
2023/04/18 01:28:03;;;;;;;24.52;11.40;;;7.00;99.90;;;;;;4987615;28;20053;-67
2023/04/18 01:30:29;;;;;;;23.35;11.48;;;6.90;99.90;;;;;;4985101;28;20028;-67
2023/04/18 01:32:54;;;;;;;23.95;10.48;;;6.90;99.90;;;;;;4988148;28;20117;-67
2023/04/18 01:35:20;;;;;;;23.80;10.85;;;7.00;99.90;;;;;;4985970;28;20113;-69
2023/04/18 01:37:46;;;;;;;24.23;11.10;;;6.90;99.90;;;;;;4987515;28;20081;-66
2023/04/18 01:40:12;;;;;;;24.63;11.52;;;6.90;99.90;;;;;;4986989;28;20382;-68
2023/04/18 01:42:37;;;;;;;24.35;11.23;;;6.90;99.90;;;;;;4985676;28;20034;-67
2023/04/18 01:45:05;;;;;;;24.08;11.65;;;6.90;99.90;;;;;;4987216;28;20031;-68
2023/04/18 01:47:30;;;;;;;24.60;10.93;;;6.90;99.90;;;;;;4986587;28;20031;-68
2023/04/18 01:49:56;;;;;;;28.10;11.85;;;6.90;99.90;;;;;;4968497;28;20104;-68
2023/04/18 01:52:22;;;;;;;24.75;11.63;;;6.90;99.90;;;;;;4986550;28;20372;-69
2023/04/18 01:54:47;;;;;;;24.23;11.48;;;6.90;99.90;;;;;;4988038;28;20022;-65
2023/04/18 01:57:13;;;;;;;26.45;11.63;;;6.90;99.90;;;;;;4985877;28;20026;-71
2023/04/18 01:59:38;;;;;;;25.33;11.52;;;6.90;99.90;;;;;;4990682;28;20471;-68
2023/04/18 02:02:04;;;;;;;23.02;11.63;;;6.90;99.90;;;;;;4989843;28;20092;-68
2023/04/18 02:04:30;;;;;;;25.52;11.50;;;6.90;99.90;;;;;;4985842;28;20038;-69
2023/04/18 02:06:55;;;;;;;24.90;11.85;;;6.90;99.90;;;;;;4948211;28;1096877;-68
2023/04/18 02:09:21;;;;;;;24.20;11.95;;;6.90;99.90;;;;;;4991005;28;20475;-68
2023/04/18 02:11:46;;;;;;;24.70;11.57;;;6.90;99.90;;;;;;4975483;28;20026;-67
2023/04/18 02:14:12;;;;;;;27.83;12.23;;;6.90;99.90;;;;;;4991716;28;20057;-67
2023/04/18 02:16:38;;;;;;;26.65;12.18;;;7.00;99.90;;;;;;4985737;28;21317;-66
2023/04/18 02:19:05;;;;;;;28.38;12.43;;;7.00;99.90;;;;;;4990951;28;20035;-69
2023/04/18 02:21:30;;;;;;;29.27;12.77;;;6.90;99.90;;;;;;4987824;28;20042;-68
2023/04/18 02:23:56;;;;;;;26.02;12.10;;;6.80;99.90;;;;;;4991004;28;20506;-68
2023/04/18 02:26:22;;;;;;;28.83;12.48;;;6.80;99.90;;;;;;4991015;28;20084;-68
2023/04/18 02:28:48;;;;;;;24.73;12.35;;;6.80;99.90;;;;;;4990828;28;20045;-67
2023/04/18 02:31:14;;;;;;;26.02;12.48;;;6.80;99.90;;;;;;4983583;28;20054;-68
2023/04/18 02:33:45;;;;;;;28.55;12.77;;;6.80;99.90;;;;;;4988116;28;20043;-68
2023/04/18 02:36:11;;;;;;;33.45;12.57;;;6.80;99.90;;;;;;4992807;28;20045;-68
2023/04/18 02:38:37;;;;;;;29.50;13.43;;;6.80;99.90;;;;;;4989820;28;20034;-67
2023/04/18 02:41:03;;;;;;;29.63;14.15;;;6.80;99.90;;;;;;4989653;28;20033;-67
2023/04/18 02:43:29;;;;;;;32.55;14.15;;;6.80;99.90;;;;;;4990033;28;20638;-67
2023/04/18 02:45:55;;;;;;;29.02;13.52;;;6.80;99.90;;;;;;4991840;28;20065;-67
2023/04/18 02:48:21;;;;;;;28.50;13.73;;;6.70;99.90;;;;;;4988155;28;20037;-70
2023/04/18 02:50:47;;;;;;;31.30;13.38;;;6.80;99.90;;;;;;4990808;28;20038;-68
2023/04/18 02:53:13;;;;;;;30.08;13.40;;;6.80;99.90;;;;;;4990165;28;20030;-68
2023/04/18 02:55:39;;;;;;;29.35;13.25;;;6.80;99.90;;;;;;4988431;28;20640;-66
2023/04/18 02:58:04;;;;;;;31.67;13.68;;;6.70;99.90;;;;;;4990767;28;20127;-65
2023/04/18 03:00:30;;;;;;;30.90;13.48;;;6.80;99.90;;;;;;4990020;28;20715;-65
2023/04/18 03:02:56;;;;;;;36.75;14.30;;;6.80;99.90;;;;;;4990294;28;20037;-65
2023/04/18 03:05:21;;;;;;;32.53;13.75;;;6.80;99.90;;;;;;4989188;28;20038;-67
2023/04/18 03:07:47;;;;;;;28.00;12.05;;;6.80;99.90;;;;;;4991365;28;20387;-64
2023/04/18 03:10:12;;;;;;;33.25;13.73;;;6.80;99.90;;;;;;4990551;28;20470;-66
2023/04/18 03:12:38;;;;;;;31.83;14.05;;;6.80;99.90;;;;;;4973166;28;20088;-65
2023/04/18 03:15:04;;;;;;;33.13;14.25;;;6.80;99.90;;;;;;4990300;28;20037;-66
2023/04/18 03:17:30;;;;;;;34.35;14.20;;;6.80;99.90;;;;;;4989747;28;20550;-66
2023/04/18 03:19:56;;;;;;;28.88;13.20;;;6.80;99.90;;;;;;4989759;28;20058;-66
2023/04/18 03:22:21;;;;;;;30.88;13.50;;;6.80;99.90;;;;;;4990006;28;20034;-69
2023/04/18 03:24:47;;;;;;;30.00;13.95;;;6.80;99.90;;;;;;4990657;28;20486;-65
2023/04/18 03:27:12;;;;;;;32.85;14.27;;;6.80;99.90;;;;;;4990216;28;20062;-65
2023/04/18 03:29:38;;;;;;;29.45;14.07;;;6.80;99.90;;;;;;4989858;28;20022;-65
2023/04/18 03:32:04;;;;;;;36.00;14.88;;;6.80;99.90;;;;;;4990479;28;20043;-66
2023/04/18 03:34:29;;;;;;;31.98;14.52;;;6.80;99.90;;;;;;4989024;28;20034;-65
2023/04/18 03:36:55;;;;;;;33.88;14.85;;;6.80;99.90;;;;;;4990264;28;20034;-65
2023/04/18 03:39:21;;;;;;;34.30;14.55;;;6.70;99.90;;;;;;4989143;28;20109;-69
2023/04/18 03:41:46;;;;;;;34.70;15.70;;;6.70;99.90;;;;;;4973073;28;20030;-65
2023/04/18 03:44:12;;;;;;;34.35;15.38;;;6.70;99.90;;;;;;4989884;28;20034;-65
2023/04/18 03:46:38;;;;;;;37.58;16.25;;;6.70;99.90;;;;;;4972033;28;20089;-65
2023/04/18 03:49:03;;;;;;;39.30;16.65;;;6.70;99.90;;;;;;4992122;28;20775;-65
2023/04/18 03:51:34;;;;;;;48.53;20.65;;;6.70;99.90;;;;;;4977015;28;20066;-65
2023/04/18 03:53:59;;;;;;;37.28;16.30;;;6.70;99.90;;;;;;4990838;28;20030;-65
2023/04/18 03:56:27;;;;;;;33.45;15.43;;;6.70;99.90;;;;;;4989341;28;20089;-65
2023/04/18 03:58:53;;;;;;;36.97;15.98;;;6.70;99.90;;;;;;4973120;28;20114;-64
2023/04/18 04:01:21;;;;;;;39.20;15.50;;;6.70;99.90;;;;;;4989428;28;20117;-64
2023/04/18 04:03:47;;;;;;;30.95;14.57;;;6.70;99.90;;;;;;4990573;28;20057;-64
2023/04/18 04:06:12;;;;;;;37.88;15.88;;;6.70;99.90;;;;;;4988294;28;20463;-64
2023/04/18 04:08:38;;;;;;;37.85;15.57;;;6.70;99.90;;;;;;4989950;28;20054;-64
2023/04/18 04:11:04;;;;;;;38.60;15.85;;;6.70;99.90;;;;;;4989526;28;20050;-64
2023/04/18 04:13:29;;;;;;;33.72;15.65;;;6.70;99.90;;;;;;4986745;28;20554;-64
2023/04/18 04:15:56;;;;;;;34.63;15.65;;;6.70;99.90;;;;;;4985198;28;20666;-65
2023/04/18 04:18:28;;;;;;;37.45;16.95;;;6.70;99.90;;;;;;4989358;28;20068;-67
2023/04/18 04:20:54;;;;;;;36.00;16.05;;;6.70;99.90;;;;;;4987091;28;20038;-64
2023/04/18 04:23:21;;;;;;;33.20;14.88;;;6.70;99.90;;;;;;4971922;28;20034;-65
2023/04/18 04:25:47;;;;;;;35.20;15.23;;;6.70;99.90;;;;;;4988364;28;20028;-65
2023/04/18 04:28:13;;;;;;;35.25;15.00;;;6.70;99.90;;;;;;4978638;28;20037;-65
2023/04/18 04:30:40;;;;;;;38.03;16.17;;;6.70;99.90;;;;;;4969388;28;20030;-65
2023/04/18 04:33:06;;;;;;;40.63;16.10;;;6.70;99.90;;;;;;4970865;28;20118;-66
2023/04/18 04:35:33;;;;;;;38.97;16.85;;;6.70;99.90;;;;;;4974427;28;20042;-66
2023/04/18 04:38:00;;;;;;;34.28;15.63;;;6.70;99.90;;;;;;4989079;28;20042;-66
2023/04/18 04:40:26;;;;;;;37.65;16.58;;;6.70;99.90;;;;;;4989209;28;20621;-69
2023/04/18 04:42:55;;;;;;;36.75;16.02;;;6.70;99.90;;;;;;4988696;28;20027;-66
2023/04/18 04:45:22;;;;;;;34.13;15.77;;;6.60;99.90;;;;;;4989268;28;20026;-66
2023/04/18 04:47:47;;;;;;;40.15;17.40;;;6.70;99.90;;;;;;4988257;28;20030;-65
2023/04/18 04:50:14;;;;;;;37.08;16.52;;;6.70;99.90;;;;;;4989094;28;20379;-66
2023/04/18 04:52:41;;;;;;;37.53;16.27;;;6.70;99.90;;;;;;4986698;28;20030;-65
2023/04/18 04:55:07;;;;;;;41.63;16.92;;;6.70;99.90;;;;;;4988366;28;20130;-65
2023/04/18 04:57:32;;;;;;;41.70;18.30;;;6.70;99.90;;;;;;4986522;28;20470;-64
2023/04/18 04:59:58;;;;;;;38.70;17.35;;;6.70;99.90;;;;;;4988923;28;20034;-66
2023/04/18 05:02:24;;;;;;;38.08;16.55;;;6.70;99.90;;;;;;4988481;28;20116;-68
2023/04/18 05:04:49;;;;;;;41.70;17.05;;;6.70;99.90;;;;;;4988491;28;20054;-65
2023/04/18 05:07:15;;;;;;;39.03;17.20;;;6.70;99.90;;;;;;4987484;28;20557;-65
2023/04/18 05:09:41;;;;;;;39.22;15.63;;;6.70;99.90;;;;;;4987044;28;20030;-65
2023/04/18 05:12:07;;;;;;;44.95;16.60;;;6.70;99.90;;;;;;4982464;28;20038;-65
2023/04/18 05:14:32;;;;;;;36.08;15.82;;;6.70;99.90;;;;;;4986489;28;20534;-69
2023/04/18 05:16:58;;;;;;;39.95;17.70;;;6.70;99.90;;;;;;4982521;28;20118;-71
2023/04/18 05:19:24;;;;;;;42.30;16.95;;;6.70;99.90;;;;;;4987456;28;20044;-72
2023/04/18 05:21:49;;;;;;;41.25;18.25;;;6.70;99.90;;;;;;4983891;28;20046;-71
2023/04/18 05:24:15;;;;;;;43.25;16.90;;;6.70;99.90;;;;;;4979008;28;20413;-74
2023/04/18 05:26:41;;;;;;;42.05;18.08;;;6.80;99.90;;;;;;4982183;28;20053;-71
2023/04/18 05:29:07;;;;;;;39.08;16.73;;;6.80;99.90;;;;;;4980695;28;20052;-71
2023/04/18 05:31:33;;;;;;;41.97;17.70;;;6.80;99.90;;;;;;4976742;28;20049;-71
2023/04/18 05:33:58;;;;;;;36.33;16.88;;;6.80;99.90;;;;;;4986900;28;20037;-71
2023/04/18 05:36:24;;;;;;;39.50;17.30;;;6.90;99.90;;;;;;4986930;28;20030;-72
2023/04/18 05:38:50;;;;;;;39.22;16.95;;;6.90;99.90;;;;;;4985541;28;20150;-71
2023/04/18 05:41:16;;;;;;;36.55;16.85;;;6.90;99.90;;;;;;4988077;28;20080;-71
2023/04/18 05:43:41;;;;;;;43.00;18.73;;;7.00;99.90;;;;;;4984059;28;20039;-71
2023/04/18 05:46:07;;;;;;;41.10;16.77;;;7.00;99.90;;;;;;4987014;28;20088;-71
2023/04/18 05:48:33;;;;;;;35.28;16.17;;;7.00;99.90;;;;;;4984092;28;20626;-72
2023/04/18 05:50:59;;;;;;;42.97;18.30;;;7.10;99.90;;;;;;4988171;28;20067;-72
2023/04/18 05:53:25;;;;;;;39.22;16.83;;;7.10;99.90;;;;;;4984501;28;20038;-73
2023/04/18 05:55:51;;;;;;;39.30;17.65;;;7.10;99.90;;;;;;4985480;28;20490;-73
2023/04/18 05:58:16;;;;;;;45.00;18.15;;;7.10;99.90;;;;;;4978650;28;20023;-73
2023/04/18 06:00:42;;;;;;;39.90;16.73;;;7.10;99.90;;;;;;4967898;28;20026;-72
2023/04/18 06:03:08;;;;;;;40.38;17.02;;;7.10;99.90;;;;;;4979473;28;20039;-72
2023/04/18 06:05:33;;;;;;;38.50;16.10;;;7.20;99.90;;;;;;4987018;28;20031;-71
2023/04/18 06:07:59;;;;;;;39.58;17.02;;;7.20;99.90;;;;;;4985005;28;20054;-73
2023/04/18 06:10:25;;;;;;;38.63;16.70;;;7.10;99.90;;;;;;5002730;28;20065;-73
2023/04/18 06:12:50;;;;;;;43.53;17.70;;;7.20;99.90;;;;;;4987589;28;20030;-72
2023/04/18 06:15:16;;;;;;;40.95;17.63;;;7.20;99.90;;;;;;4987490;28;20037;-73
2023/04/18 06:17:42;;;;;;;38.83;17.33;;;7.30;99.90;;;;;;4988059;28;20030;-71
2023/04/18 06:20:08;;;;;;;38.35;16.40;;;7.30;99.90;;;;;;4988762;28;20018;-70
2023/04/18 06:22:34;;;;;;;40.75;18.25;;;7.30;99.90;;;;;;4986978;28;20050;-70
2023/04/18 06:25:00;;;;;;;43.42;18.27;;;7.30;99.90;;;;;;4987234;28;20629;-70
2023/04/18 06:27:26;;;;;;;38.03;16.65;;;7.30;99.90;;;;;;4988734;28;20159;-72
2023/04/18 06:29:52;;;;;;;41.30;17.20;;;7.30;99.90;;;;;;4988150;28;20046;-72
2023/04/18 06:32:18;;;;;;;42.65;18.15;;;7.40;99.90;;;;;;4981779;28;20485;-73
2023/04/18 06:34:43;;;;;;;46.08;17.73;;;7.40;99.90;;;;;;4985133;28;20121;-71
2023/04/18 06:37:10;;;;;;;41.15;17.40;;;7.40;99.90;;;;;;4987702;28;20042;-72
2023/04/18 06:39:35;;;;;;;43.78;17.80;;;7.30;99.90;;;;;;4984586;28;20049;-71
2023/04/18 06:42:03;;;;;;;46.13;18.73;;;7.40;99.90;;;;;;4983005;28;20043;-71
2023/04/18 06:44:30;;;;;;;46.47;19.50;;;7.40;99.90;;;;;;4989235;28;20042;-73
2023/04/18 06:46:56;;;;;;;40.33;18.02;;;7.40;99.90;;;;;;5001441;28;20181;-71
2023/04/18 06:49:22;;;;;;;43.38;18.92;;;7.30;99.90;;;;;;4970808;28;20114;-71
2023/04/18 06:51:48;;;;;;;45.60;18.58;;;7.40;99.90;;;;;;4976865;28;20039;-72
2023/04/18 06:54:13;;;;;;;45.75;20.10;;;7.40;99.90;;;;;;4976138;28;20022;-71
2023/04/18 06:56:39;;;;;;;52.13;22.65;;;7.50;99.90;;;;;;4982230;28;20395;-72
2023/04/18 06:59:05;;;;;;;41.17;18.42;;;7.40;99.90;;;;;;4990448;28;20105;-72
2023/04/18 07:01:34;;;;;;;44.05;19.17;;;7.40;99.90;;;;;;4991001;28;20042;-73
2023/04/18 07:04:00;;;;;;;41.85;19.63;;;7.50;99.90;;;;;;4954640;28;20128;-71
2023/04/18 07:06:26;;;;;;;46.45;19.95;;;7.50;99.90;;;;;;4971882;28;20110;-72
2023/04/18 07:08:52;;;;;;;44.13;20.08;;;7.60;99.90;;;;;;4987085;28;20076;-71
2023/04/18 07:11:18;;;;;;;44.33;20.15;;;7.60;99.90;;;;;;4990782;28;20126;-69
2023/04/18 07:13:46;;;;;;;47.47;19.05;;;7.60;99.90;;;;;;4986409;28;20042;-70
2023/04/18 07:16:11;;;;;;;44.97;19.13;;;7.70;99.90;;;;;;4989963;28;20056;-71
2023/04/18 07:18:37;;;;;;;47.35;20.67;;;7.70;99.90;;;;;;4989741;28;20502;-71
2023/04/18 07:21:05;;;;;;;49.63;20.38;;;7.90;99.90;;;;;;4990948;28;20038;-70
2023/04/18 07:23:31;;;;;;;50.78;19.58;;;8.10;99.90;;;;;;4982582;28;20042;-71
2023/04/18 07:25:58;;;;;;;44.90;19.05;;;8.40;99.90;;;;;;4965284;28;20053;-71
2023/04/18 07:28:24;;;;;;;44.47;19.77;;;8.50;99.90;;;;;;4986352;28;20030;-71
2023/04/18 07:30:50;;;;;;;48.08;18.75;;;8.40;99.90;;;;;;4985831;28;20826;-71
2023/04/18 07:33:15;;;;;;;40.90;18.98;;;8.50;99.90;;;;;;4990399;28;20140;-71
2023/04/18 07:35:44;;;;;;;39.63;17.70;;;8.60;99.90;;;;;;4990252;28;20471;-70
2023/04/18 07:38:11;;;;;;;46.58;18.80;;;8.70;99.90;;;;;;4990536;28;20042;-71
2023/04/18 07:40:37;;;;;;;43.60;18.52;;;8.70;99.90;;;;;;4989898;28;20038;-71
2023/04/18 07:43:02;;;;;;;39.72;17.85;;;8.70;99.90;;;;;;4991044;28;20359;-70
2023/04/18 07:45:28;;;;;;;41.85;18.77;;;8.60;99.90;;;;;;4991084;28;20378;-70
2023/04/18 07:47:54;;;;;;;41.75;18.45;;;8.60;99.90;;;;;;4986148;28;20034;-70
2023/04/18 07:50:20;;;;;;;41.25;18.88;;;8.60;99.90;;;;;;4991102;28;20085;-69
2023/04/18 07:52:47;;;;;;;41.45;18.40;;;8.50;99.90;;;;;;4989778;28;20031;-70
2023/04/18 07:55:13;;;;;;;44.03;18.80;;;8.40;99.90;;;;;;4990249;28;20053;-69
2023/04/18 07:57:42;;;;;;;40.72;17.95;;;8.40;99.90;;;;;;4989622;28;20030;-70
2023/04/18 08:00:08;;;;;;;42.15;18.20;;;8.30;99.90;;;;;;4989767;28;20089;-70
2023/04/18 08:02:34;;;;;;;46.50;19.05;;;8.30;99.90;;;;;;4990261;28;20446;-71
2023/04/18 08:04:59;;;;;;;41.90;17.98;;;8.30;99.90;;;;;;4990589;28;20042;-70
2023/04/18 08:07:25;;;;;;;40.25;17.70;;;8.40;99.90;;;;;;4988638;28;20462;-71
2023/04/18 08:09:50;;;;;;;43.55;19.05;;;8.40;99.90;;;;;;4989146;28;20042;-71
2023/04/18 08:12:16;;;;;;;39.00;17.10;;;8.50;99.90;;;;;;4989428;28;20096;-70
2023/04/18 08:14:42;;;;;;;40.80;18.27;;;8.60;99.90;;;;;;4989443;28;20026;-71
2023/04/18 08:17:07;;;;;;;40.30;16.98;;;8.60;99.90;;;;;;5005210;28;20057;-70
2023/04/18 08:19:33;;;;;;;41.67;18.48;;;8.60;99.90;;;;;;4990301;28;20049;-71
2023/04/18 08:22:09;;;;;;;38.90;17.52;;;8.60;99.90;;;;;;4989861;28;20136;-69
2023/04/18 08:24:38;;;;;;;38.05;17.23;;;8.70;99.90;;;;;;4972452;28;20045;-72
2023/04/18 08:27:04;;;;;;;39.95;18.48;;;8.70;99.90;;;;;;4989689;28;20038;-71
2023/04/18 08:29:30;;;;;;;39.33;17.17;;;8.70;99.90;;;;;;4990210;28;20699;-71
2023/04/18 08:31:55;;;;;;;37.80;17.17;;;8.90;99.90;;;;;;4988673;28;20042;-71
2023/04/18 08:34:21;;;;;;;42.40;17.10;;;9.10;99.90;;;;;;4990206;28;20417;-71
2023/04/18 08:36:47;;;;;;;40.30;17.17;;;9.10;99.90;;;;;;4989263;28;20033;-71
2023/04/18 08:39:12;;;;;;;38.80;17.08;;;9.20;99.90;;;;;;4990402;28;20080;-71
2023/04/18 08:41:41;;;;;;;39.05;18.02;;;9.30;99.90;;;;;;4988509;28;20066;-72
2023/04/18 08:44:07;;;;;;;40.03;17.45;;;9.40;99.90;;;;;;4989453;28;20034;-70
2023/04/18 08:46:34;;;;;;;38.85;18.13;;;9.60;99.90;;;;;;4989981;28;20041;-71
2023/04/18 08:49:03;;;;;;;36.97;17.10;;;9.70;99.90;;;;;;4989404;28;20037;-71
2023/04/18 08:51:33;;;;;;;35.72;15.82;;;9.60;99.90;;;;;;4990025;28;20054;-71
2023/04/18 08:54:03;;;;;;;35.53;16.67;;;9.70;99.90;;;;;;4988457;28;20550;-71
2023/04/18 08:56:32;;;;;;;35.93;16.33;;;10.00;99.90;;;;;;4981126;28;20113;-70
2023/04/18 08:58:59;;;;;;;33.13;15.43;;;10.20;99.90;;;;;;4999186;28;20309;-71
2023/04/18 09:01:57;;;;;;;35.13;16.33;;;10.40;99.90;;;;;;4988154;28;20494;-71
2023/04/18 09:04:52;;;;;;;33.28;15.18;;;10.60;99.90;;;;;;4989774;28;20062;-72
2023/04/18 09:07:26;;;;;;;36.90;17.75;;;10.70;99.90;;;;;;4985510;28;20506;-72
2023/04/18 09:09:53;;;;;;;31.95;15.05;;;10.60;99.90;;;;;;4988146;28;20050;-72
2023/04/18 09:12:24;;;;;;;58.20;22.25;;;10.70;99.90;;;;;;4989417;28;20034;-71
2023/04/18 09:14:52;;;;;;;52.92;22.33;;;10.50;99.90;;;;;;4975427;28;20038;-71
2023/04/18 09:17:34;;;;;;;37.63;16.15;;;10.40;99.90;;;;;;4989515;28;20529;-71
2023/04/18 09:20:01;;;;;;;69.82;28.20;;;10.40;99.90;;;;;;4988366;28;20649;-71
2023/04/18 09:22:49;;;;;;;38.00;16.05;;;10.40;99.90;;;;;;4989275;28;20076;-71
2023/04/18 09:25:40;;;;;;;28.73;14.27;;;10.40;99.90;;;;;;4989161;28;20035;-71
2023/04/18 09:28:21;;;;;;;30.05;14.48;;;10.40;99.90;;;;;;4988642;28;20030;-70
2023/04/18 09:30:51;;;;;;;28.88;13.23;;;10.40;99.90;;;;;;4988332;28;20034;-71
2023/04/18 09:33:16;;;;;;;30.15;14.35;;;10.40;99.90;;;;;;4988854;28;20041;-71
2023/04/18 09:35:42;;;;;;;34.88;15.40;;;10.40;99.90;;;;;;4987985;28;20031;-72
2023/04/18 09:38:08;;;;;;;32.40;13.55;;;10.50;99.90;;;;;;4989016;28;20035;-71
2023/04/18 09:40:34;;;;;;;31.60;14.45;;;10.50;99.90;;;;;;4988304;28;20057;-71
2023/04/18 09:43:15;;;;;;;25.15;12.35;;;10.50;99.90;;;;;;4987648;28;20030;-71
2023/04/18 09:45:41;;;;;;;26.88;12.05;;;10.50;99.90;;;;;;4988321;28;20514;-73
2023/04/18 09:48:07;;;;;;;26.10;12.45;;;10.60;99.90;;;;;;4988730;28;20054;-70
2023/04/18 09:50:34;;;;;;;28.80;12.40;;;10.60;99.90;;;;;;4989071;28;20096;-71
2023/04/18 09:53:01;;;;;;;21.92;10.93;;;10.70;99.90;;;;;;4988354;28;20089;-70
2023/04/18 09:55:28;;;;;;;29.77;13.20;;;10.80;99.90;;;;;;4971057;28;20475;-71
2023/04/18 09:57:55;;;;;;;44.80;18.08;;;10.90;99.90;;;;;;4987376;28;20411;-72
2023/04/18 10:00:26;;;;;;;32.47;13.90;;;11.10;99.90;;;;;;5003651;28;20387;-70
2023/04/18 10:03:01;;;;;;;30.00;14.00;;;11.10;99.90;;;;;;4988217;28;20065;-71
2023/04/18 10:05:30;;;;;;;39.42;16.13;;;11.20;99.90;;;;;;4988763;28;20368;-70
2023/04/18 10:07:56;;;;;;;24.80;11.45;;;11.60;99.90;;;;;;4986579;28;20061;-71
2023/04/18 10:10:23;;;;;;;22.90;10.65;;;12.00;99.90;;;;;;4988908;28;20048;-71
2023/04/18 10:12:52;;;;;;;25.08;11.88;;;11.90;99.90;;;;;;4987651;28;20027;-72
2023/04/18 10:15:20;;;;;;;24.38;11.38;;;12.00;99.90;;;;;;4988602;28;20110;-71
2023/04/18 10:17:54;;;;;;;23.33;10.98;;;12.10;99.90;;;;;;4988151;28;20026;-70
2023/04/18 10:20:30;;;;;;;30.83;13.45;;;12.00;99.90;;;;;;4991009;28;20034;-71
2023/04/18 10:22:57;;;;;;;25.88;12.57;;;12.10;99.90;;;;;;4991327;28;20387;-71
2023/04/18 10:25:38;;;;;;;30.83;14.07;;;12.10;99.90;;;;;;4992366;28;20442;-70
2023/04/18 10:28:08;;;;;;;35.78;14.48;;;12.00;99.90;;;;;;4991452;28;20033;-71
2023/04/18 10:30:39;;;;;;;22.10;11.03;;;11.90;99.90;;;;;;4992351;28;20085;-70
2023/04/18 10:33:27;;;;;;;22.50;10.35;;;11.80;99.90;;;;;;4994829;28;20034;-71
2023/04/18 10:36:16;;;;;;;22.60;10.77;;;11.80;99.90;;;;;;4990850;28;20038;-72
2023/04/18 10:38:49;;;;;;;22.15;9.98;;;11.80;99.90;;;;;;4992268;28;20034;-72
2023/04/18 10:41:17;;;;;;;22.52;10.15;;;12.00;99.90;;;;;;4983486;28;20048;-71
2023/04/18 10:44:14;;;;;;;23.92;11.20;;;12.10;99.90;;;;;;4991280;28;20042;-72
2023/04/18 10:46:41;;;;;;;21.90;10.27;;;12.00;99.90;;;;;;4990810;28;20149;-71
2023/04/18 10:49:24;;;;;;;24.38;10.40;;;11.80;99.90;;;;;;4986388;28;20038;-71
2023/04/18 10:51:52;;;;;;;24.73;11.52;;;11.60;99.90;;;;;;4991345;28;20582;-71
2023/04/18 10:54:27;;;;;;;21.77;10.18;;;11.50;99.90;;;;;;4992062;28;20044;-71
2023/04/18 10:56:58;;;;;;;27.70;11.75;;;11.40;99.90;;;;;;4991351;28;20410;-70
2023/04/18 10:59:25;;;;;;;21.58;10.65;;;11.40;99.90;;;;;;4991901;28;20386;-71
2023/04/18 11:02:28;;;;;;;21.67;9.77;;;11.40;99.90;;;;;;4991041;28;20045;-71
2023/04/18 11:05:05;;;;;;;21.85;9.75;;;11.50;99.90;;;;;;4987463;28;20046;-72
2023/04/18 11:07:39;;;;;;;17.85;8.65;;;11.60;99.90;;;;;;4991535;28;20152;-71
2023/04/18 11:10:06;;;;;;;20.42;9.25;;;11.60;99.90;;;;;;4990557;28;20694;-70
2023/04/18 11:12:35;;;;;;;19.80;8.93;;;11.50;99.90;;;;;;4991037;28;20384;-71
2023/04/18 11:15:02;;;;;;;19.20;9.25;;;11.50;99.90;;;;;;4990773;28;20026;-72
2023/04/18 11:17:34;;;;;;;21.48;9.38;;;11.60;99.90;;;;;;4991549;28;20490;-72
2023/04/18 11:20:13;;;;;;;17.95;8.65;;;11.80;99.90;;;;;;4990167;28;20056;-70
2023/04/18 11:22:59;;;;;;;17.90;7.95;;;12.00;99.90;;;;;;4971974;28;20596;-72
2023/04/18 11:25:30;;;;;;;15.23;7.90;;;12.30;99.90;;;;;;4971964;28;20085;-71
2023/04/18 11:28:01;;;;;;;17.35;7.55;;;12.30;99.90;;;;;;4974047;28;20038;-71
2023/04/18 11:30:36;;;;;;;16.17;7.63;;;12.30;99.90;;;;;;4990997;28;20045;-71
2023/04/18 11:33:19;;;;;;;17.80;9.10;;;12.40;99.90;;;;;;4989854;28;20394;-71
2023/04/18 11:35:46;;;;;;;15.77;8.18;;;12.50;99.90;;;;;;4990856;28;20038;-71
2023/04/18 11:38:15;;;;;;;16.98;8.32;;;12.50;99.90;;;;;;4990742;28;20042;-71
2023/04/18 11:40:49;;;;;;;16.02;8.43;;;12.60;99.90;;;;;;4990504;28;20717;-71
2023/04/18 11:43:20;;;;;;;15.18;7.68;;;12.50;99.90;;;;;;4990475;28;20759;-70
2023/04/18 11:45:58;;;;;;;15.23;7.30;;;12.40;99.90;;;;;;4990445;28;20034;-71
2023/04/18 11:48:32;;;;;;;15.50;7.72;;;12.40;99.90;;;;;;4990346;28;20030;-70
2023/04/18 11:50:58;;;;;;;16.88;7.72;;;12.40;99.90;;;;;;4990246;28;20034;-72
2023/04/18 11:53:37;;;;;;;17.73;7.70;;;12.40;99.90;;;;;;4990890;28;20034;-71
2023/04/18 11:56:04;;;;;;;12.50;6.75;;;12.30;99.90;;;;;;4984708;28;20026;-72
2023/04/18 11:58:31;;;;;;;17.48;8.30;;;12.30;99.90;;;;;;4990934;28;20062;-72
2023/04/18 12:00:57;;;;;;;13.77;7.13;;;12.40;99.90;;;;;;4989848;28;20113;-72
2023/04/18 12:03:23;;;;;;;15.32;7.88;;;12.50;99.90;;;;;;4990414;28;20113;-72
2023/04/18 12:05:58;;;;;;;13.02;6.70;;;12.50;99.90;;;;;;4989552;28;20037;-70
2023/04/18 12:08:25;;;;;;;13.25;6.47;;;12.60;99.90;;;;;;4990136;28;20092;-72
2023/04/18 12:10:53;;;;;;;12.73;6.97;;;12.70;99.90;;;;;;4989750;28;20045;-71
2023/04/18 12:13:25;;;;;;;16.05;7.85;;;12.80;99.90;;;;;;4990446;28;20026;-72
2023/04/18 12:15:51;;;;;;;13.38;6.88;;;12.70;99.90;;;;;;4989533;28;20107;-71
2023/04/18 12:18:20;;;;;;;13.60;7.15;;;12.70;99.90;;;;;;4977052;28;20771;-71
2023/04/18 12:20:52;;;;;;;13.30;6.70;;;12.60;99.90;;;;;;4989392;28;20041;-70
2023/04/18 12:23:32;;;;;;;14.18;7.25;;;12.60;99.90;;;;;;4990498;28;20038;-71
2023/04/18 12:26:03;;;;;;;13.82;7.05;;;12.70;99.90;;;;;;4989625;28;20022;-71
2023/04/18 12:28:29;;;;;;;18.00;7.35;;;12.90;99.90;;;;;;4990188;28;20023;-71
2023/04/18 12:30:55;;;;;;;22.23;9.30;;;13.10;99.90;;;;;;4989221;28;20046;-72
2023/04/18 12:33:20;;;;;;;15.30;7.22;;;13.00;99.90;;;;;;4989368;28;20501;-72
2023/04/18 12:35:47;;;;;;;12.73;6.45;;;13.20;99.90;;;;;;4990332;28;20037;-71
2023/04/18 12:38:12;;;;;;;13.75;7.18;;;13.60;99.90;;;;;;4989226;28;20085;-72
2023/04/18 12:40:39;;;;;;;13.25;6.82;;;13.70;99.90;;;;;;5002566;28;20050;-71